Time;durP1;ratioP1;P1;durP2;ratioP2;P2;SDS_P1;SDS_P2;PMS_P1;PMS_P2;Temp;Humidity;BMP_temperature;BMP_pressure;BME280_temperature;BME280_humidity;BME280_pressure;Samples;Min_cycle;Max_cycle;Signal;HPM_P1;HPM_P2
2022/08/02 00:00:56;;;;;;;6.30;5.05;;;17.00;99.90;;;;;;5074235;28;20598;-60
2022/08/02 00:03:23;;;;;;;5.03;4.22;;;17.00;99.90;;;;;;5054830;28;20440;-60
2022/08/02 00:05:51;;;;;;;7.72;5.43;;;17.00;99.90;;;;;;5055891;28;21159;-61
2022/08/02 00:08:20;;;;;;;7.03;5.80;;;17.00;99.90;;;;;;5055438;28;20045;-60
2022/08/02 00:10:48;;;;;;;15.07;5.95;;;16.90;99.90;;;;;;5070223;28;20585;-60
2022/08/02 00:13:15;;;;;;;10.45;6.38;;;16.90;99.90;;;;;;5055688;28;20114;-60
2022/08/02 00:15:41;;;;;;;;;;;16.90;99.90;;;;;;5056824;28;20041;-60
2022/08/02 00:18:08;;;;;;;9.43;6.20;;;16.80;99.90;;;;;;5055276;28;19978;-58
2022/08/02 00:20:35;;;;;;;;;;;16.80;99.90;;;;;;5056572;28;20064;-60
2022/08/02 00:23:01;;;;;;;7.63;6.70;;;16.80;99.90;;;;;;5055514;28;19920;-59
2022/08/02 00:25:28;;;;;;;;;;;16.80;99.90;;;;;;5055976;28;20082;-59
2022/08/02 00:27:55;;;;;;;9.05;6.22;;;16.80;99.90;;;;;;5055561;28;19928;-59
2022/08/02 00:30:22;;;;;;;7.40;6.22;;;16.80;99.90;;;;;;5054486;28;20098;-60
2022/08/02 00:32:49;;;;;;;8.07;6.47;;;16.70;99.90;;;;;;5053695;28;20044;-59
2022/08/02 00:35:16;;;;;;;;;;;16.70;99.90;;;;;;5055618;28;20051;-59
2022/08/02 00:37:43;;;;;;;13.57;5.72;;;16.70;99.90;;;;;;5053735;28;19924;-60
2022/08/02 00:40:10;;;;;;;6.70;6.00;;;16.70;99.90;;;;;;5054855;28;20114;-59
2022/08/02 00:42:38;;;;;;;6.38;5.60;;;16.60;99.90;;;;;;5069299;28;20117;-60
2022/08/02 00:45:05;;;;;;;7.15;5.28;;;16.70;99.90;;;;;;5074665;28;20051;-59
2022/08/02 00:47:32;;;;;;;6.38;5.53;;;16.60;99.90;;;;;;5074864;28;20062;-60
2022/08/02 00:50:00;;;;;;;6.20;4.95;;;16.60;99.90;;;;;;5075799;28;20097;-60
2022/08/02 00:52:27;;;;;;;8.52;5.10;;;16.60;99.90;;;;;;5074727;28;20056;-59
2022/08/02 00:54:53;;;;;;;;;;;16.60;99.90;;;;;;5075798;28;20058;-59
2022/08/02 00:57:20;;;;;;;6.32;5.00;;;16.60;99.90;;;;;;5074304;28;19963;-60
2022/08/02 00:59:47;;;;;;;;;;;16.60;99.90;;;;;;5076048;28;20706;-60
2022/08/02 01:02:14;;;;;;;5.65;5.15;;;16.60;99.90;;;;;;5073782;28;19950;-59
2022/08/02 01:04:42;;;;;;;6.45;4.93;;;16.50;99.90;;;;;;5074658;28;20052;-60
2022/08/02 01:07:09;;;;;;;;;;;16.50;99.90;;;;;;5075629;28;20105;-59
2022/08/02 01:09:43;;;;;;;4.60;3.88;;;16.40;99.90;;;;;;5057004;28;19920;-59
2022/08/02 01:12:11;;;;;;;5.40;4.68;;;16.50;99.90;;;;;;5074938;28;20048;-58
2022/08/02 01:14:42;;;;;;;7.15;5.05;;;16.40;99.90;;;;;;5058591;28;20726;-59
2022/08/02 01:17:23;;;;;;;6.55;5.18;;;16.40;99.90;;;;;;5054922;28;20398;-59
2022/08/02 01:20:21;;;;;;;7.25;5.53;;;16.30;99.90;;;;;;5054672;28;20041;-60
2022/08/02 01:23:08;;;;;;;9.40;5.80;;;16.40;99.90;;;;;;5055054;28;20045;-60
2022/08/02 01:25:52;;;;;;;7.30;5.22;;;16.30;99.90;;;;;;5054226;28;20124;-59
2022/08/02 01:28:48;;;;;;;7.75;4.97;;;16.30;99.90;;;;;;5054965;28;20041;-59
2022/08/02 01:31:18;;;;;;;6.13;5.25;;;16.20;99.90;;;;;;5054144;28;20133;-59
2022/08/02 01:33:55;;;;;;;6.63;5.00;;;16.20;99.90;;;;;;5054304;28;20118;-60
2022/08/02 01:36:26;;;;;;;6.68;5.97;;;16.20;99.90;;;;;;5053859;28;20044;-60
2022/08/02 01:38:55;;;;;;;10.02;5.72;;;16.10;99.90;;;;;;5054734;28;20040;-60
2022/08/02 01:41:25;;;;;;;7.18;5.63;;;16.10;99.90;;;;;;5053975;28;20496;-59
2022/08/02 01:43:56;;;;;;;6.82;5.65;;;16.10;99.90;;;;;;5070097;28;20036;-59
2022/08/02 01:46:26;;;;;;;7.35;5.40;;;16.10;99.90;;;;;;5074667;28;20675;-58
2022/08/02 01:48:56;;;;;;;7.50;5.50;;;16.10;99.90;;;;;;5073978;28;20079;-60
2022/08/02 01:54:14;;;;;;;5.45;4.88;;;16.00;99.90;;;;;;5073752;28;20059;-60
2022/08/02 01:56:43;;;;;;;6.10;5.03;;;16.00;99.90;;;;;;5074812;28;20432;-59
2022/08/02 01:59:15;;;;;;;8.30;5.15;;;16.00;99.90;;;;;;5073815;28;20048;-60
2022/08/02 02:01:44;;;;;;;6.60;5.22;;;16.00;99.90;;;;;;5073317;28;20633;-58
2022/08/02 02:04:16;;;;;;;7.50;5.00;;;16.00;99.90;;;;;;5073715;28;20044;-60
2022/08/02 02:06:44;;;;;;;7.72;5.68;;;16.00;99.90;;;;;;5074611;28;20093;-58
2022/08/02 02:09:14;;;;;;;5.30;4.80;;;15.90;99.90;;;;;;5075087;28;20555;-60
2022/08/02 02:11:44;;;;;;;7.65;4.68;;;15.90;99.90;;;;;;5063276;28;20040;-58
2022/08/02 02:14:33;;;;;;;6.25;4.68;;;15.90;99.90;;;;;;5063984;28;20051;-59
2022/08/02 02:17:01;;;;;;;6.25;4.45;;;15.90;99.90;;;;;;5057516;28;20078;-60
2022/08/02 02:19:32;;;;;;;7.05;4.78;;;15.90;99.90;;;;;;5058053;28;20248;-60
2022/08/02 02:21:58;;;;;;;7.25;5.03;;;15.90;99.90;;;;;;5057533;28;20045;-60
2022/08/02 02:24:27;;;;;;;12.77;5.60;;;15.80;99.90;;;;;;5057649;28;20846;-58
2022/08/02 02:26:54;;;;;;;11.57;5.93;;;15.80;99.90;;;;;;5056273;28;20052;-60
2022/08/02 02:29:23;;;;;;;;;;;15.80;99.90;;;;;;5058329;28;20094;-58
2022/08/02 02:31:53;;;;;;;7.55;5.70;;;15.70;99.90;;;;;;5057144;28;19950;-60
2022/08/02 02:34:42;;;;;;;8.35;5.30;;;15.70;99.90;;;;;;5056527;28;20547;-59
2022/08/02 02:37:16;;;;;;;16.65;7.22;;;15.70;99.90;;;;;;5057842;28;20050;-61
2022/08/02 02:39:44;;;;;;;9.65;6.32;;;15.60;99.90;;;;;;5057864;28;20689;-59
2022/08/02 02:42:16;;;;;;;7.97;6.10;;;15.60;99.90;;;;;;5060171;28;20052;-59
2022/08/02 02:44:45;;;;;;;7.00;6.07;;;15.60;99.90;;;;;;5075014;28;20876;-59
2022/08/02 02:47:14;;;;;;;6.70;5.68;;;15.50;99.90;;;;;;5077730;28;20044;-60
2022/08/02 02:49:42;;;;;;;6.85;5.88;;;15.50;99.90;;;;;;5076960;28;20078;-59
2022/08/02 02:52:10;;;;;;;6.93;5.70;;;15.50;99.90;;;;;;5077674;28;20125;-59
2022/08/02 02:54:37;;;;;;;8.75;6.28;;;15.50;99.90;;;;;;5076401;28;20115;-59
2022/08/02 02:57:05;;;;;;;9.65;6.22;;;15.50;99.90;;;;;;5078030;28;20044;-59
2022/08/02 02:59:34;;;;;;;7.65;6.22;;;15.50;99.90;;;;;;5077420;28;20044;-59
2022/08/02 03:02:02;;;;;;;11.88;6.70;;;15.50;99.90;;;;;;5076488;28;20044;-59
2022/08/02 03:04:29;;;;;;;9.90;5.28;;;15.50;99.90;;;;;;5066804;28;20067;-60
2022/08/02 03:07:16;;;;;;;6.47;4.78;;;15.50;99.90;;;;;;5056452;28;20056;-60
2022/08/02 03:09:43;;;;;;;6.47;5.82;;;15.50;99.90;;;;;;5062935;28;20472;-58
2022/08/02 03:12:13;;;;;;;8.95;5.22;;;15.40;99.90;;;;;;5065855;28;20114;-59
2022/08/02 03:14:45;;;;;;;8.10;5.55;;;15.40;99.90;;;;;;5056663;28;20055;-60
2022/08/02 03:17:15;;;;;;;7.70;5.90;;;15.40;99.90;;;;;;5056612;28;20044;-60
2022/08/02 03:19:43;;;;;;;12.05;5.60;;;15.40;99.90;;;;;;5056637;28;20516;-61
2022/08/02 03:22:10;;;;;;;8.00;6.18;;;15.30;99.90;;;;;;5056896;28;20643;-59
2022/08/02 03:24:37;;;;;;;9.27;6.53;;;15.30;99.90;;;;;;5056643;28;20106;-59
2022/08/02 03:27:04;;;;;;;10.13;6.20;;;15.30;99.90;;;;;;5057468;28;20040;-58
2022/08/02 03:29:31;;;;;;;;;;;15.20;99.90;;;;;;5056904;28;20044;-59
2022/08/02 03:32:00;;;;;;;17.33;5.95;;;15.20;99.90;;;;;;5056793;28;19930;-61
2022/08/02 03:34:27;;;;;;;12.38;6.35;;;15.10;99.90;;;;;;5056020;28;20076;-60
2022/08/02 03:36:56;;;;;;;13.07;5.90;;;15.10;99.90;;;;;;5057127;28;20874;-60
2022/08/02 03:39:25;;;;;;;6.47;5.13;;;15.10;99.90;;;;;;5055685;28;20044;-61
2022/08/02 03:41:53;;;;;;;9.82;6.90;;;15.10;99.90;;;;;;5056265;28;20040;-60
2022/08/02 03:44:21;;;;;;;11.20;6.20;;;15.10;99.90;;;;;;5060389;28;20063;-61
2022/08/02 03:46:48;;;;;;;7.03;5.95;;;15.10;99.90;;;;;;5074785;28;20044;-60
2022/08/02 03:49:17;;;;;;;10.15;5.78;;;15.00;99.90;;;;;;5058684;28;20054;-52
2022/08/02 03:51:45;;;;;;;6.95;5.45;;;15.00;99.90;;;;;;5075543;28;20032;-52
2022/08/02 03:54:13;;;;;;;7.53;5.10;;;15.00;99.90;;;;;;5076326;28;20105;-52
2022/08/02 03:56:39;;;;;;;7.32;4.82;;;15.00;99.90;;;;;;5076235;28;20854;-53
2022/08/02 03:59:12;;;;;;;5.47;4.70;;;15.00;99.90;;;;;;5058617;28;20738;-53
2022/08/02 04:01:40;;;;;;;5.10;4.60;;;15.00;99.90;;;;;;5075728;28;20036;-53
2022/08/02 04:04:07;;;;;;;5.65;4.72;;;15.10;99.90;;;;;;5072971;28;20040;-50
2022/08/02 04:06:34;;;;;;;4.97;4.43;;;15.10;99.90;;;;;;5056136;28;20052;-53
2022/08/02 04:09:08;;;;;;;5.85;5.15;;;15.00;99.90;;;;;;5054945;28;20786;-51
2022/08/02 04:11:36;;;;;;;7.03;4.80;;;15.00;99.90;;;;;;5070822;28;20044;-54
2022/08/02 04:14:10;;;;;;;5.80;4.85;;;15.00;99.90;;;;;;5053483;28;20465;-52
2022/08/02 04:16:45;;;;;;;8.05;4.97;;;15.00;99.90;;;;;;5054621;28;20872;-50
2022/08/02 04:19:27;;;;;;;6.93;4.53;;;15.00;99.90;;;;;;5055249;28;20044;-52
2022/08/02 04:21:56;;;;;;;7.03;4.93;;;15.00;99.90;;;;;;5055934;28;20044;-51
2022/08/02 04:24:27;;;;;;;4.85;4.35;;;15.00;99.90;;;;;;5053829;28;20767;-52
2022/08/02 04:26:56;;;;;;;5.22;4.28;;;15.00;99.90;;;;;;5055981;28;20079;-52
2022/08/02 04:29:33;;;;;;;7.78;4.82;;;15.10;99.90;;;;;;5055365;28;20056;-53
2022/08/02 04:32:01;;;;;;;4.68;3.70;;;15.10;99.90;;;;;;5055134;28;20106;-52
2022/08/02 04:34:29;;;;;;;4.72;4.00;;;15.10;99.90;;;;;;5055536;28;20048;-59
2022/08/02 04:36:57;;;;;;;4.97;3.95;;;15.10;99.90;;;;;;5053313;28;20209;-52
2022/08/02 04:39:24;;;;;;;8.00;4.82;;;15.20;99.90;;;;;;5055305;28;20048;-56
2022/08/02 04:41:51;;;;;;;8.57;5.63;;;15.20;99.90;;;;;;5036402;28;20171;-54
2022/08/02 04:44:23;;;;;;;4.57;4.15;;;15.20;99.90;;;;;;5056078;28;20539;-50
2022/08/02 04:46:50;;;;;;;;;;;15.20;99.90;;;;;;5071489;28;20068;-52
2022/08/02 04:49:17;;;;;;;8.57;4.75;;;15.30;99.90;;;;;;5075227;28;19924;-51
2022/08/02 04:51:44;;;;;;;5.97;4.07;;;15.30;99.90;;;;;;5074417;28;20152;-50
2022/08/02 04:54:11;;;;;;;;;;;15.40;99.90;;;;;;5075657;28;20044;-52
2022/08/02 04:56:38;;;;;;;4.93;4.15;;;15.40;99.90;;;;;;5075198;28;19985;-52
2022/08/02 04:59:06;;;;;;;5.80;4.75;;;15.50;99.90;;;;;;5074973;28;20067;-53
2022/08/02 05:01:34;;;;;;;5.57;4.00;;;15.50;99.90;;;;;;5075090;28;20043;-53
2022/08/02 05:04:01;;;;;;;5.72;4.50;;;15.60;99.90;;;;;;5056838;28;20142;-53
2022/08/02 05:06:28;;;;;;;6.10;4.07;;;15.60;99.90;;;;;;5038163;28;20135;-53
2022/08/02 05:08:55;;;;;;;5.22;3.72;;;15.60;99.90;;;;;;5054728;28;20117;-52
2022/08/02 05:11:23;;;;;;;;;;;15.70;99.90;;;;;;5069713;28;20135;-53
2022/08/02 05:14:03;;;;;;;6.07;3.83;;;15.70;99.90;;;;;;5053961;28;19920;-53
2022/08/02 05:16:30;;;;;;;4.22;3.50;;;15.70;99.90;;;;;;5021010;28;20036;-53
2022/08/02 05:19:02;;;;;;;4.78;3.78;;;15.80;99.90;;;;;;5053134;28;20049;-53
2022/08/02 05:21:30;;;;;;;4.22;3.83;;;15.80;99.90;;;;;;5054299;28;20048;-52
2022/08/02 05:23:57;;;;;;;3.50;3.13;;;15.90;99.90;;;;;;5036602;28;20040;-54
2022/08/02 05:26:23;;;;;;;;;;;15.90;99.90;;;;;;5055005;28;20052;-52
2022/08/02 05:28:50;;;;;;;4.20;3.67;;;15.90;99.90;;;;;;5054674;28;19931;-51
2022/08/02 05:31:17;;;;;;;5.00;4.32;;;16.00;99.90;;;;;;5052694;28;20056;-51
2022/08/02 05:33:44;;;;;;;7.60;5.38;;;16.10;99.90;;;;;;5054563;28;20537;-51
2022/08/02 05:36:11;;;;;;;5.20;4.47;;;16.10;99.90;;;;;;5054463;28;20142;-52
2022/08/02 05:38:38;;;;;;;4.85;4.35;;;16.10;99.90;;;;;;5052865;28;20128;-53
2022/08/02 05:41:05;;;;;;;;;;;16.20;99.90;;;;;;5053903;28;20041;-52
2022/08/02 05:43:32;;;;;;;5.77;3.87;;;16.30;99.90;;;;;;5055053;28;19971;-53
2022/08/02 05:45:59;;;;;;;5.70;4.63;;;16.30;99.90;;;;;;5055244;28;20545;-53
2022/08/02 05:48:26;;;;;;;4.20;3.80;;;16.40;99.90;;;;;;5050901;28;20145;-58
2022/08/02 05:51:14;;;;;;;7.18;4.53;;;16.40;99.90;;;;;;5054229;28;20118;-51
2022/08/02 05:53:49;;;;;;;6.63;4.05;;;16.50;99.90;;;;;;5053974;28;20040;-53
2022/08/02 05:56:17;;;;;;;5.30;4.15;;;16.60;99.90;;;;;;5054839;28;20052;-53
2022/08/02 05:58:56;;;;;;;7.05;4.90;;;16.70;99.90;;;;;;5053132;28;20075;-52
2022/08/02 06:01:31;;;;;;;4.45;3.90;;;16.70;99.90;;;;;;5052964;28;20048;-51
2022/08/02 06:03:59;;;;;;;17.35;4.13;;;16.80;99.90;;;;;;5036135;28;20040;-51
2022/08/02 06:06:31;;;;;;;4.57;3.90;;;16.90;99.90;;;;;;5066478;28;20032;-53
2022/08/02 06:09:05;;;;;;;6.78;3.63;;;17.00;99.90;;;;;;5074419;28;20047;-53
2022/08/02 06:11:38;;;;;;;4.35;3.75;;;17.00;99.90;;;;;;5053616;28;20033;-51
2022/08/02 06:14:06;;;;;;;4.78;3.78;;;17.10;99.90;;;;;;5042753;28;20040;-53
2022/08/02 06:16:34;;;;;;;5.68;4.35;;;17.20;99.90;;;;;;5036077;28;20647;-51
2022/08/02 06:19:10;;;;;;;4.95;3.72;;;17.30;99.90;;;;;;5054459;28;20041;-50
2022/08/02 06:21:41;;;;;;;6.57;3.78;;;17.30;99.90;;;;;;5053777;28;20036;-54
2022/08/02 06:24:31;;;;;;;6.18;3.85;;;17.40;99.90;;;;;;5054426;28;20106;-53
2022/08/02 06:26:59;;;;;;;3.83;3.42;;;17.50;99.90;;;;;;5052597;28;20049;-53
2022/08/02 06:29:30;;;;;;;5.63;3.95;;;17.60;99.90;;;;;;5054177;28;20060;-52
2022/08/02 06:32:06;;;;;;;6.93;3.75;;;17.60;99.90;;;;;;5054369;28;20079;-53
2022/08/02 06:34:37;;;;;;;5.25;4.18;;;17.70;99.90;;;;;;5053918;28;20541;-51
2022/08/02 06:37:35;;;;;;;3.90;3.47;;;17.70;99.90;;;;;;5054138;28;20064;-55
2022/08/02 06:40:24;;;;;;;10.52;4.43;;;17.80;99.90;;;;;;5054327;28;20127;-55
2022/08/02 06:43:04;;;;;;;5.93;3.22;;;17.80;99.90;;;;;;5053385;28;20124;-53
2022/08/02 06:45:33;;;;;;;6.30;3.40;;;17.90;99.90;;;;;;5074422;28;20044;-53
2022/08/02 06:48:00;;;;;;;4.30;3.70;;;18.00;99.90;;;;;;5073254;28;20033;-50
2022/08/02 06:50:27;;;;;;;4.18;3.35;;;18.10;99.90;;;;;;5072555;28;20051;-53
2022/08/02 06:52:54;;;;;;;5.40;3.97;;;18.20;99.90;;;;;;5055784;28;20271;-58
2022/08/02 06:55:21;;;;;;;5.13;3.88;;;18.30;99.90;;;;;;5072967;28;20055;-50
2022/08/02 06:57:48;;;;;;;9.60;4.40;;;18.40;99.90;;;;;;5075305;28;20052;-52
2022/08/02 07:00:15;;;;;;;4.80;3.75;;;18.50;99.90;;;;;;5075209;28;20044;-54
2022/08/02 07:02:43;;;;;;;7.20;3.63;;;18.60;99.90;;;;;;5073869;28;20043;-55
2022/08/02 07:05:10;;;;;;;5.93;4.15;;;18.70;99.90;;;;;;5075409;28;20101;-54
2022/08/02 07:07:37;;;;;;;4.95;3.75;;;18.80;99.90;;;;;;5074916;28;20044;-58
2022/08/02 07:10:04;;;;;;;3.90;3.50;;;18.90;99.90;;;;;;5068499;28;20048;-53
2022/08/02 07:12:32;;;;;;;4.70;3.97;;;18.90;99.90;;;;;;5067623;28;20531;-58
2022/08/02 07:15:01;;;;;;;4.80;3.47;;;19.10;99.90;;;;;;5055134;28;20127;-61
2022/08/02 07:17:28;;;;;;;4.93;3.65;;;19.10;99.90;;;;;;5056518;28;20119;-61
2022/08/02 07:19:56;;;;;;;4.60;4.20;;;19.20;99.90;;;;;;5056914;28;20052;-59
2022/08/02 07:22:25;;;;;;;4.95;4.05;;;19.20;99.90;;;;;;5056497;28;20045;-61
2022/08/02 07:24:57;;;;;;;6.05;3.83;;;19.30;99.90;;;;;;5056374;28;20046;-59
2022/08/02 07:27:25;;;;;;;6.60;4.10;;;19.40;99.90;;;;;;5057108;28;20051;-60
2022/08/02 07:29:52;;;;;;;4.40;4.00;;;19.60;99.90;;;;;;5056202;28;20041;-61
2022/08/02 07:32:23;;;;;;;5.05;4.00;;;19.70;99.90;;;;;;5056723;28;20058;-60
2022/08/02 07:34:50;;;;;;;5.97;4.65;;;19.80;99.90;;;;;;5055783;28;20056;-60
2022/08/02 07:37:30;;;;;;;4.28;3.88;;;19.90;99.90;;;;;;5056695;28;20097;-60
2022/08/02 07:40:17;;;;;;;5.78;5.20;;;19.90;99.90;;;;;;5054544;28;20056;-59
2022/08/02 07:42:48;;;;;;;7.28;4.15;;;20.00;99.90;;;;;;5055895;28;20043;-60
2022/08/02 07:45:15;;;;;;;5.47;3.88;;;20.00;99.90;;;;;;5074096;28;20036;-60
2022/08/02 07:47:43;;;;;;;5.35;4.57;;;20.10;99.90;;;;;;5076191;28;20044;-53
2022/08/02 07:50:12;;;;;;;4.88;3.95;;;20.20;99.90;;;;;;5074266;28;20036;-49
2022/08/02 07:52:40;;;;;;;6.32;4.03;;;20.30;99.90;;;;;;5075855;28;20048;-49
2022/08/02 07:55:09;;;;;;;3.72;3.42;;;20.40;99.90;;;;;;5058111;28;20226;-48
2022/08/02 07:57:37;;;;;;;4.15;3.70;;;20.50;99.90;;;;;;5076035;28;20044;-55
2022/08/02 08:00:10;;;;;;;9.55;4.00;;;20.70;99.90;;;;;;5076518;28;20151;-61
2022/08/02 08:02:38;;;;;;;3.95;3.28;;;20.80;99.90;;;;;;5075641;28;20480;-60
2022/08/02 08:05:05;;;;;;;4.68;3.53;;;20.90;99.90;;;;;;5072486;28;20127;-60
2022/08/02 08:07:33;;;;;;;4.35;3.58;;;21.00;99.90;;;;;;5053156;28;20044;-61
2022/08/02 08:10:01;;;;;;;7.00;4.35;;;21.20;99.90;;;;;;5062690;28;20075;-63
2022/08/02 08:12:28;;;;;;;9.75;4.00;;;21.70;99.90;;;;;;5062745;28;20763;-61
2022/08/02 08:14:55;;;;;;;5.20;3.80;;;22.30;99.90;;;;;;5055119;28;20137;-62
2022/08/02 08:17:22;;;;;;;5.03;3.88;;;22.80;99.90;;;;;;5055440;28;20520;-61
2022/08/02 08:19:49;;;;;;;6.20;4.80;;;23.30;99.90;;;;;;5055077;28;20140;-61
2022/08/02 08:22:19;;;;;;;3.88;3.58;;;23.70;99.90;;;;;;5054100;28;20048;-61
2022/08/02 08:24:46;;;;;;;4.40;3.53;;;24.10;99.90;;;;;;5054983;28;20389;-63
2022/08/02 08:27:18;;;;;;;4.45;3.50;;;24.30;99.90;;;;;;5053996;28;20049;-63
2022/08/02 08:29:45;;;;;;;4.28;3.65;;;24.60;99.90;;;;;;5053274;28;20647;-64
2022/08/02 08:32:12;;;;;;;5.40;3.40;;;24.70;99.90;;;;;;5054162;28;20889;-63
2022/08/02 08:34:47;;;;;;;7.13;3.78;;;24.90;99.90;;;;;;5060580;28;20133;-64
2022/08/02 08:37:15;;;;;;;5.47;3.08;;;25.00;99.90;;;;;;5072667;28;20040;-63
2022/08/02 08:39:45;;;;;;;7.03;4.13;;;25.20;99.90;;;;;;5073151;28;20044;-63
2022/08/02 08:42:29;;;;;;;4.97;3.67;;;25.40;99.90;;;;;;5059702;28;20772;-63
2022/08/02 08:44:56;;;;;;;6.63;3.67;;;25.40;99.90;;;;;;5054003;28;20040;-64
2022/08/02 08:47:32;;;;;;;8.07;4.10;;;25.50;99.90;;;;;;5059605;28;20145;-64
2022/08/02 08:50:05;;;;;;;3.63;3.22;;;25.70;99.90;;;;;;5063463;28;20073;-65
2022/08/02 08:52:41;;;;;;;10.05;3.83;;;25.90;99.90;;;;;;5066354;28;20037;-64
2022/08/02 08:55:10;;;;;;;7.00;3.33;;;26.00;99.90;;;;;;5054861;28;20060;-64
2022/08/02 08:57:42;;;;;;;4.53;3.30;;;26.10;99.90;;;;;;5054473;28;20040;-65
2022/08/02 09:00:15;;;;;;;3.22;2.92;;;26.20;99.90;;;;;;5037099;28;20044;-64
2022/08/02 09:02:42;;;;;;;4.90;3.80;;;26.40;99.90;;;;;;5052931;28;20127;-62
2022/08/02 09:05:12;;;;;;;3.67;2.70;;;26.50;99.90;;;;;;5058312;28;20519;-63
2022/08/02 09:07:41;;;;;;;3.40;2.83;;;26.50;99.90;;;;;;5075220;28;20051;-64
2022/08/02 09:10:42;;;;;;;6.32;2.88;;;26.60;99.90;;;;;;5065222;28;20056;-65
2022/08/02 09:13:11;;;;;;;2.83;2.55;;;26.70;99.90;;;;;;5026190;28;20064;-64
2022/08/02 09:16:00;;;;;;;7.47;3.05;;;26.80;99.90;;;;;;5053366;28;20063;-65
2022/08/02 09:18:44;;;;;;;3.25;2.72;;;26.90;99.90;;;;;;5054127;28;20048;-64
2022/08/02 09:21:16;;;;;;;4.03;2.92;;;27.00;99.90;;;;;;5054021;28;20532;-62
2022/08/02 09:23:47;;;;;;;3.40;3.03;;;27.00;99.90;;;;;;5054414;28;20043;-63
2022/08/02 09:26:23;;;;;;;4.63;3.22;;;27.10;99.90;;;;;;5054270;28;20082;-63
2022/08/02 09:28:57;;;;;;;3.08;2.72;;;27.20;99.90;;;;;;5054843;28;20048;-63
2022/08/02 09:31:24;;;;;;;3.30;2.60;;;27.30;99.90;;;;;;5054067;28;20293;-62
2022/08/02 09:33:56;;;;;;;4.60;2.42;;;27.40;99.90;;;;;;5053280;28;20501;-65
2022/08/02 09:36:24;;;;;;;3.42;2.92;;;27.50;99.90;;;;;;5054562;28;20052;-65
2022/08/02 09:38:54;;;;;;;2.90;2.28;;;27.70;99.90;;;;;;5052607;28;20045;-66
2022/08/02 09:41:26;;;;;;;3.10;2.80;;;27.70;99.90;;;;;;5053040;28;20056;-65
2022/08/02 09:43:55;;;;;;;3.38;2.67;;;27.90;99.90;;;;;;5052765;28;20095;-65
2022/08/02 09:46:40;;;;;;;6.90;2.63;;;28.10;99.40;;;;;;5054925;28;20127;-65
2022/08/02 09:49:08;;;;;;;4.53;3.00;;;28.20;99.90;;;;;;5052870;28;20043;-66
2022/08/02 09:51:57;;;;;;;4.47;2.80;;;28.20;99.60;;;;;;5068388;28;20043;-66
2022/08/02 09:54:28;;;;;;;3.75;2.83;;;28.20;99.90;;;;;;5059795;28;20052;-66
2022/08/02 09:56:57;;;;;;;4.25;2.97;;;28.30;99.90;;;;;;5054547;28;20859;-66
2022/08/02 09:59:26;;;;;;;4.65;3.28;;;28.30;99.90;;;;;;5036184;28;20048;-66
2022/08/02 10:01:54;;;;;;;4.20;3.25;;;28.40;98.40;;;;;;5036381;28;20051;-66
2022/08/02 10:04:31;;;;;;;2.90;2.70;;;28.40;95.80;;;;;;5052458;28;20129;-66
2022/08/02 10:07:18;;;;;;;3.33;2.75;;;28.50;96.90;;;;;;5053475;28;20043;-66
2022/08/02 10:09:47;;;;;;;3.38;2.33;;;28.60;94.70;;;;;;5059716;28;20545;-66
2022/08/02 10:12:14;;;;;;;3.67;2.88;;;28.60;98.00;;;;;;5063542;28;20048;-66
2022/08/02 10:14:42;;;;;;;3.47;3.03;;;28.70;97.50;;;;;;5054165;28;20531;-66
2022/08/02 10:17:09;;;;;;;3.88;2.92;;;28.80;96.10;;;;;;5053995;28;20036;-66
2022/08/02 10:19:36;;;;;;;5.90;3.05;;;28.80;95.40;;;;;;5053511;28;20040;-66
2022/08/02 10:22:24;;;;;;;9.55;3.03;;;28.70;93.60;;;;;;5052342;28;20032;-66
2022/08/02 10:24:51;;;;;;;2.90;2.35;;;28.50;95.00;;;;;;5054050;28;20120;-67
2022/08/02 10:27:20;;;;;;;3.60;2.80;;;28.40;95.10;;;;;;5053742;28;20049;-66
2022/08/02 10:29:49;;;;;;;2.72;2.33;;;28.50;95.60;;;;;;5037304;28;20060;-67
2022/08/02 10:32:27;;;;;;;3.53;2.50;;;28.50;93.80;;;;;;5056280;28;20108;-66
2022/08/02 10:35:01;;;;;;;2.42;1.90;;;28.50;91.80;;;;;;5057807;28;20771;-67
2022/08/02 10:37:52;;;;;;;2.58;2.38;;;28.60;87.50;;;;;;5057369;28;20894;-66
2022/08/02 10:40:22;;;;;;;3.78;2.45;;;28.50;90.90;;;;;;5040145;28;20036;-66
2022/08/02 10:42:54;;;;;;;1.98;1.80;;;28.40;89.70;;;;;;5055945;28;20049;-66
2022/08/02 10:45:22;;;;;;;2.80;1.80;;;28.50;86.90;;;;;;5056214;28;20507;-64
2022/08/02 10:48:07;;;;;;;2.13;1.95;;;28.50;80.60;;;;;;5056284;28;20059;-64
2022/08/02 10:50:49;;;;;;;1.98;1.80;;;28.50;83.40;;;;;;5056971;28;20055;-64
2022/08/02 10:53:19;;;;;;;2.35;1.88;;;28.60;82.90;;;;;;5055630;28;20035;-64
2022/08/02 10:55:46;;;;;;;4.15;2.03;;;28.60;76.30;;;;;;5076912;28;20075;-64
2022/08/02 10:58:21;;;;;;;4.97;1.90;;;28.60;79.60;;;;;;5077712;28;20047;-64
2022/08/02 11:00:56;;;;;;;1.83;1.67;;;28.70;78.00;;;;;;5058072;28;20082;-65
2022/08/02 11:03:40;;;;;;;2.13;1.88;;;28.70;75.70;;;;;;5077853;28;20055;-62
2022/08/02 11:06:12;;;;;;;1.95;1.70;;;28.80;77.60;;;;;;5074447;28;20077;-63
2022/08/02 11:09:31;;;;;;;2.88;2.00;;;28.90;71.50;;;;;;5056916;28;20052;-63
2022/08/02 11:11:59;;;;;;;2.03;1.83;;;29.10;73.60;;;;;;5064844;28;20036;-63
2022/08/02 11:14:26;;;;;;;2.15;1.75;;;29.30;71.30;;;;;;5045502;28;20556;-63
2022/08/02 11:16:56;;;;;;;2.08;1.70;;;29.40;66.70;;;;;;5056531;28;20048;-63
2022/08/02 11:19:25;;;;;;;1.60;1.50;;;29.50;64.70;;;;;;5057185;28;20572;-63
2022/08/02 11:22:05;;;;;;;1.90;1.75;;;29.50;64.80;;;;;;5056767;28;20040;-63
2022/08/02 11:24:37;;;;;;;2.85;2.20;;;29.50;67.80;;;;;;5055880;28;20408;-64
2022/08/02 11:27:07;;;;;;;6.15;2.13;;;29.60;68.40;;;;;;5039250;28;20162;-63
2022/08/02 11:29:40;;;;;;;4.10;1.73;;;29.60;67.10;;;;;;5054948;28;20768;-63
2022/08/02 11:32:21;;;;;;;2.33;2.13;;;29.60;68.30;;;;;;5056968;28;20048;-63
2022/08/02 11:34:57;;;;;;;3.03;1.77;;;29.70;68.60;;;;;;5054584;28;20692;-63
2022/08/02 11:37:34;;;;;;;2.97;1.73;;;29.60;66.20;;;;;;5057152;28;20051;-63
2022/08/02 11:40:01;;;;;;;;;;;29.60;66.40;;;;;;5056659;28;20094;-64
2022/08/02 11:42:33;;;;;;;2.58;2.10;;;29.70;67.10;;;;;;5054819;28;19932;-63
2022/08/02 11:45:00;;;;;;;2.00;1.80;;;29.70;65.70;;;;;;5055740;28;20051;-64
2022/08/02 11:47:27;;;;;;;1.90;1.80;;;29.70;65.90;;;;;;5056847;28;20841;-63
2022/08/02 11:50:08;;;;;;;1.95;1.85;;;29.80;63.80;;;;;;5056923;28;20045;-63
2022/08/02 11:52:35;;;;;;;2.30;1.65;;;29.90;65.30;;;;;;5062002;28;20044;-63
2022/08/02 11:55:04;;;;;;;1.63;1.52;;;29.90;62.10;;;;;;5073689;28;20155;-62
2022/08/02 11:57:33;;;;;;;1.95;1.50;;;29.90;59.90;;;;;;5076383;28;20114;-63
2022/08/02 12:00:21;;;;;;;3.42;2.08;;;30.00;60.80;;;;;;5076308;28;20052;-62
2022/08/02 12:02:52;;;;;;;3.70;2.00;;;30.20;58.10;;;;;;5075626;28;20042;-63
2022/08/02 12:05:22;;;;;;;3.08;2.15;;;30.20;61.40;;;;;;5074941;28;20578;-67
2022/08/02 12:08:09;;;;;;;1.80;1.60;;;30.30;58.80;;;;;;5060048;28;20048;-65
2022/08/02 12:10:49;;;;;;;2.67;1.42;;;30.30;60.90;;;;;;5054647;28;20049;-65
2022/08/02 12:13:15;;;;;;;1.55;1.45;;;30.30;59.50;;;;;;5058166;28;20063;-66
2022/08/02 12:15:44;;;;;;;4.63;1.67;;;30.30;58.30;;;;;;5076242;28;20040;-66
2022/08/02 12:21:28;;;;;;;4.65;1.90;;;30.50;58.50;;;;;;5057798;28;20044;-63
2022/08/02 12:23:54;;;;;;;4.85;1.75;;;30.60;56.50;;;;;;5075669;28;20063;-65
2022/08/02 12:26:28;;;;;;;1.75;1.63;;;30.60;54.70;;;;;;5057647;28;20128;-65
2022/08/02 12:29:00;;;;;;;2.67;2.05;;;30.60;56.00;;;;;;5074891;28;20054;-65
2022/08/02 12:31:40;;;;;;;3.90;1.95;;;30.50;55.30;;;;;;5075273;28;20044;-64
2022/08/02 12:34:26;;;;;;;1.75;1.65;;;30.50;55.90;;;;;;5075770;28;20097;-65
2022/08/02 12:37:02;;;;;;;3.65;2.35;;;30.40;55.30;;;;;;5074518;28;20064;-64
2022/08/02 12:39:44;;;;;;;2.25;1.70;;;30.50;55.80;;;;;;5076064;28;20040;-65
2022/08/02 12:42:13;;;;;;;4.25;1.70;;;30.50;57.20;;;;;;5074884;28;20115;-65
2022/08/02 12:44:50;;;;;;;2.30;1.92;;;30.50;57.30;;;;;;5074306;28;20039;-65
2022/08/02 12:47:17;;;;;;;1.75;1.65;;;30.50;56.40;;;;;;5060441;28;20047;-64
2022/08/02 12:50:10;;;;;;;1.88;1.52;;;30.60;55.50;;;;;;5053969;28;20083;-65
2022/08/02 12:52:37;;;;;;;3.72;2.13;;;30.70;55.40;;;;;;5053817;28;20055;-64
2022/08/02 12:55:27;;;;;;;2.17;1.85;;;30.80;55.50;;;;;;5070643;28;20130;-64
2022/08/02 12:58:14;;;;;;;2.47;1.77;;;30.90;54.00;;;;;;5073316;28;20511;-64
2022/08/02 13:00:51;;;;;;;2.80;1.73;;;31.00;53.60;;;;;;5074797;28;20786;-64
2022/08/02 13:03:19;;;;;;;2.20;1.67;;;31.00;53.90;;;;;;5074568;28;20123;-65
2022/08/02 13:06:06;;;;;;;1.75;1.65;;;31.10;54.20;;;;;;5075162;28;20937;-64
2022/08/02 13:08:54;;;;;;;2.20;2.00;;;31.30;54.00;;;;;;5074703;28;20044;-64
2022/08/02 13:11:21;;;;;;;2.03;1.45;;;31.40;54.90;;;;;;5058038;28;20443;-65
2022/08/02 13:13:48;;;;;;;2.65;2.05;;;31.40;54.40;;;;;;5066143;28;20045;-65
2022/08/02 13:16:15;;;;;;;1.75;1.63;;;31.40;53.00;;;;;;5053510;28;20102;-65
2022/08/02 13:18:44;;;;;;;5.25;2.40;;;31.50;52.20;;;;;;5055290;28;20042;-64